Time;durP1;ratioP1;P1;durP2;ratioP2;P2;SDS_P1;SDS_P2;PMS_P1;PMS_P2;Temp;Humidity;BMP_temperature;BMP_pressure;BME280_temperature;BME280_humidity;BME280_pressure;Samples;Min_cycle;Max_cycle;Signal;HPM_P1;HPM_P2
2023/05/26 00:00:52;;;;;;;33.08;6.93;;;8.70;99.90;;;;;;5033969;28;20398;-64
2023/05/26 00:03:17;;;;;;;41.25;6.68;;;8.70;99.90;;;;;;5016245;28;20056;-64
2023/05/26 00:05:44;;;;;;;28.27;5.22;;;8.70;99.90;;;;;;5014413;28;20170;-64
2023/05/26 00:08:11;;;;;;;31.05;5.63;;;8.80;99.90;;;;;;5029330;28;20052;-63
2023/05/26 00:10:36;;;;;;;32.70;6.05;;;8.80;99.90;;;;;;5029236;28;20084;-64
2023/05/26 00:13:02;;;;;;;32.92;6.70;;;8.80;99.90;;;;;;5025649;28;20179;-64
2023/05/26 00:15:28;;;;;;;32.17;6.50;;;8.80;99.90;;;;;;5032302;28;20279;-64
2023/05/26 00:17:57;;;;;;;31.83;6.10;;;8.80;99.90;;;;;;5039232;28;20110;-64
2023/05/26 00:20:24;;;;;;;32.70;6.03;;;8.70;99.90;;;;;;5008177;28;20501;-64
2023/05/26 00:22:50;;;;;;;38.72;6.72;;;8.70;99.90;;;;;;5030036;28;20061;-64
2023/05/26 00:25:16;;;;;;;29.38;5.75;;;8.70;99.90;;;;;;5008355;28;20056;-64
2023/05/26 00:27:42;;;;;;;34.65;6.18;;;8.70;99.90;;;;;;5025241;28;20045;-64
2023/05/26 00:30:09;;;;;;;30.35;5.10;;;8.70;99.90;;;;;;5031160;28;20435;-64
2023/05/26 00:32:35;;;;;;;31.42;5.53;;;8.70;99.90;;;;;;5036393;28;21252;-64
2023/05/26 00:35:01;;;;;;;25.92;5.57;;;8.70;99.90;;;;;;5033273;28;20049;-64
2023/05/26 00:37:26;;;;;;;34.15;6.15;;;8.60;99.90;;;;;;5034124;28;20048;-64
2023/05/26 00:39:52;;;;;;;39.05;6.55;;;8.60;99.90;;;;;;5031374;28;20048;-62
2023/05/26 00:42:18;;;;;;;29.55;5.80;;;8.60;99.90;;;;;;5039442;28;21065;-64
2023/05/26 00:44:43;;;;;;;30.13;5.97;;;8.60;99.90;;;;;;5022334;28;20072;-64
2023/05/26 00:47:09;;;;;;;36.45;6.65;;;8.60;99.90;;;;;;5033894;28;21174;-63
2023/05/26 00:49:35;;;;;;;29.33;6.22;;;8.50;99.90;;;;;;5040780;28;20044;-64
2023/05/26 00:52:01;;;;;;;27.88;6.35;;;8.50;99.90;;;;;;5032616;28;20045;-64
2023/05/26 00:54:27;;;;;;;29.02;6.32;;;8.50;99.90;;;;;;5039828;28;20033;-64
2023/05/26 00:56:54;;;;;;;31.58;6.13;;;8.50;99.90;;;;;;5004224;28;20064;-64
2023/05/26 00:59:21;;;;;;;36.35;6.45;;;8.50;99.90;;;;;;5031178;28;20117;-62
2023/05/26 01:01:49;;;;;;;30.33;6.28;;;8.50;99.90;;;;;;5034025;28;20118;-64
2023/05/26 01:04:15;;;;;;;36.75;6.05;;;8.50;99.90;;;;;;5036713;28;20477;-63
2023/05/26 01:06:44;;;;;;;29.27;6.22;;;8.40;99.90;;;;;;5022537;28;20048;-63
2023/05/26 01:09:11;;;;;;;34.65;6.55;;;8.40;99.90;;;;;;5040926;28;20046;-64
2023/05/26 01:11:44;;;;;;;36.53;7.32;;;8.40;99.90;;;;;;5027154;28;20128;-63
2023/05/26 01:14:47;;;;;;;31.60;6.20;;;8.40;99.90;;;;;;5031219;28;20092;-62
2023/05/26 01:17:22;;;;;;;24.27;5.47;;;8.40;99.90;;;;;;5026036;28;22299;-64
2023/05/26 01:20:13;;;;;;;34.38;6.00;;;8.40;99.90;;;;;;5029523;28;20067;-64
2023/05/26 01:22:51;;;;;;;30.67;6.63;;;8.40;99.90;;;;;;5020063;28;20040;-64
2023/05/26 01:25:56;;;;;;;31.95;5.82;;;8.30;99.90;;;;;;5033340;28;20083;-64
2023/05/26 01:28:28;;;;;;;31.52;6.65;;;8.30;99.90;;;;;;5034626;28;20049;-64
2023/05/26 01:30:55;;;;;;;33.05;6.18;;;8.40;99.90;;;;;;5015795;28;20104;-63
2023/05/26 01:33:20;;;;;;;41.40;6.85;;;8.30;99.90;;;;;;5037816;28;20041;-64
2023/05/26 01:35:46;;;;;;;30.48;6.20;;;8.30;99.90;;;;;;5036843;28;20090;-62
2023/05/26 01:38:13;;;;;;;40.60;7.20;;;8.30;99.90;;;;;;5031984;28;20033;-64
2023/05/26 01:40:41;;;;;;;33.08;5.88;;;8.30;99.90;;;;;;5033032;28;20072;-64
2023/05/26 01:43:23;;;;;;;31.25;7.03;;;8.30;99.90;;;;;;5033410;28;21128;-64
2023/05/26 01:46:05;;;;;;;34.90;6.53;;;8.30;99.90;;;;;;5033478;28;20045;-64
2023/05/26 01:48:33;;;;;;;38.85;7.00;;;8.30;99.90;;;;;;5036883;28;20120;-63
2023/05/26 01:51:03;;;;;;;30.25;6.25;;;8.30;99.90;;;;;;5035721;28;20053;-63
2023/05/26 01:53:35;;;;;;;35.90;6.68;;;8.30;99.90;;;;;;5016631;28;20037;-64
2023/05/26 01:56:01;;;;;;;30.77;6.57;;;8.30;99.90;;;;;;5034733;28;20083;-63
2023/05/26 01:58:29;;;;;;;29.45;5.70;;;8.30;99.90;;;;;;5025650;28;20041;-64
2023/05/26 02:00:56;;;;;;;33.75;6.75;;;8.30;99.90;;;;;;5032817;28;20121;-63
2023/05/26 02:03:22;;;;;;;39.22;7.07;;;8.20;99.90;;;;;;5052658;28;20126;-64
2023/05/26 02:05:48;;;;;;;24.95;5.15;;;8.30;99.90;;;;;;5012542;28;20204;-64
2023/05/26 02:08:14;;;;;;;33.53;6.25;;;8.30;99.90;;;;;;5034473;28;20048;-64
2023/05/26 02:10:40;;;;;;;26.50;5.45;;;8.20;99.90;;;;;;5037228;28;20037;-64
2023/05/26 02:13:06;;;;;;;29.20;5.85;;;8.20;99.90;;;;;;5013118;28;20045;-63
2023/05/26 02:15:32;;;;;;;35.60;6.13;;;8.20;99.90;;;;;;5039088;28;20427;-64
2023/05/26 02:17:58;;;;;;;31.10;6.30;;;8.10;99.90;;;;;;5037141;28;20073;-64
2023/05/26 02:20:25;;;;;;;35.15;6.28;;;8.10;99.90;;;;;;5035972;28;20056;-64
2023/05/26 02:22:51;;;;;;;30.85;6.13;;;8.10;99.90;;;;;;5033761;28;20053;-64
2023/05/26 02:25:17;;;;;;;29.75;5.95;;;8.10;99.90;;;;;;5044987;28;20033;-64
2023/05/26 02:27:43;;;;;;;29.33;5.18;;;8.00;99.90;;;;;;5040916;28;20053;-64
2023/05/26 02:30:09;;;;;;;31.65;6.28;;;8.00;99.90;;;;;;5035492;28;20047;-64
2023/05/26 02:32:36;;;;;;;36.55;6.68;;;8.00;99.90;;;;;;5008007;28;20049;-64
2023/05/26 02:35:03;;;;;;;31.05;5.45;;;8.00;99.90;;;;;;5034623;28;20086;-63
2023/05/26 02:37:30;;;;;;;30.58;5.60;;;8.00;99.90;;;;;;5036274;28;20081;-62
2023/05/26 02:39:56;;;;;;;28.38;5.78;;;8.00;99.90;;;;;;5037388;28;20404;-63
2023/05/26 02:42:22;;;;;;;29.95;5.95;;;8.10;99.90;;;;;;5035024;28;20448;-63
2023/05/26 02:44:48;;;;;;;29.63;6.47;;;8.00;99.90;;;;;;5020549;28;20045;-64
2023/05/26 02:47:13;;;;;;;24.17;5.30;;;8.00;99.90;;;;;;5028682;28;20179;-63
2023/05/26 02:49:40;;;;;;;32.15;6.45;;;8.00;99.90;;;;;;5034831;28;20033;-63
2023/05/26 02:52:06;;;;;;;30.05;5.47;;;8.00;99.90;;;;;;5032126;28;20045;-64
2023/05/26 02:54:31;;;;;;;31.60;6.13;;;8.00;99.90;;;;;;5039676;28;20488;-64
2023/05/26 02:56:57;;;;;;;32.58;6.15;;;8.00;99.90;;;;;;5034816;28;20207;-63
2023/05/26 02:59:23;;;;;;;32.58;5.93;;;7.90;99.90;;;;;;5038675;28;20052;-64
2023/05/26 03:01:48;;;;;;;33.78;6.03;;;7.90;99.90;;;;;;5037464;28;20528;-63
2023/05/26 03:04:14;;;;;;;39.72;6.65;;;7.90;99.90;;;;;;5040684;28;20044;-63
2023/05/26 03:06:41;;;;;;;26.98;5.38;;;7.90;99.90;;;;;;5038559;28;20067;-64
2023/05/26 03:09:07;;;;;;;40.45;5.97;;;7.90;99.90;;;;;;5034868;28;20042;-63
2023/05/26 03:11:33;;;;;;;36.15;6.25;;;7.90;99.90;;;;;;5023083;28;20048;-64
2023/05/26 03:14:00;;;;;;;33.28;5.95;;;7.90;99.90;;;;;;5003968;28;20045;-64
2023/05/26 03:16:27;;;;;;;26.20;5.43;;;7.90;99.90;;;;;;5053192;28;22302;-64
2023/05/26 03:18:53;;;;;;;31.30;6.50;;;7.90;99.90;;;;;;5038794;28;20045;-64
2023/05/26 03:21:19;;;;;;;26.67;6.10;;;7.90;99.90;;;;;;5030740;28;25839;-64
2023/05/26 03:23:45;;;;;;;31.40;6.15;;;7.90;99.90;;;;;;5037861;28;20128;-64
2023/05/26 03:26:11;;;;;;;30.25;5.80;;;7.90;99.90;;;;;;5033401;28;20068;-62
2023/05/26 03:28:37;;;;;;;42.13;6.53;;;7.90;99.90;;;;;;5034684;28;20065;-63
2023/05/26 03:31:03;;;;;;;29.67;5.60;;;7.90;99.90;;;;;;5036126;28;20115;-63
2023/05/26 03:33:31;;;;;;;30.52;7.10;;;7.90;99.90;;;;;;5039162;28;20534;-62
2023/05/26 03:35:59;;;;;;;36.42;6.10;;;7.90;99.90;;;;;;5028720;28;20045;-64
2023/05/26 03:38:25;;;;;;;28.50;5.28;;;7.90;99.90;;;;;;5033820;28;20107;-63
2023/05/26 03:40:50;;;;;;;33.20;6.38;;;7.90;99.90;;;;;;5033557;28;20553;-63
2023/05/26 03:43:16;;;;;;;27.10;6.05;;;7.90;99.90;;;;;;5007203;28;20041;-63
2023/05/26 03:45:42;;;;;;;40.85;6.07;;;7.90;99.90;;;;;;5035435;28;20126;-62
2023/05/26 03:48:12;;;;;;;27.88;6.15;;;7.90;99.90;;;;;;5033691;28;20048;-63
2023/05/26 03:50:38;;;;;;;30.30;7.18;;;7.90;99.90;;;;;;5029496;28;20045;-62
2023/05/26 03:53:04;;;;;;;30.10;6.22;;;7.80;99.90;;;;;;5033834;28;20786;-64
2023/05/26 03:55:33;;;;;;;35.58;6.35;;;7.90;99.90;;;;;;5037320;28;20053;-64
2023/05/26 03:57:59;;;;;;;40.80;6.07;;;7.90;99.90;;;;;;5028942;28;20045;-63
2023/05/26 04:00:30;;;;;;;30.38;6.43;;;7.90;99.90;;;;;;5037619;28;20114;-63
2023/05/26 04:02:56;;;;;;;33.70;6.35;;;8.00;99.90;;;;;;5013767;28;20080;-64
2023/05/26 04:05:22;;;;;;;29.67;6.65;;;8.00;99.90;;;;;;5034256;28;20449;-63
2023/05/26 04:07:49;;;;;;;29.60;5.28;;;8.00;99.90;;;;;;5037430;28;20105;-63
2023/05/26 04:10:15;;;;;;;28.38;5.72;;;8.00;99.90;;;;;;5040442;28;20072;-63
2023/05/26 04:12:40;;;;;;;29.27;5.90;;;8.00;99.90;;;;;;5033920;28;20037;-64
2023/05/26 04:15:08;;;;;;;30.95;5.78;;;8.00;99.90;;;;;;5035121;28;20784;-63
2023/05/26 04:17:33;;;;;;;29.77;5.38;;;8.10;99.90;;;;;;5032825;28;20044;-64
2023/05/26 04:19:59;;;;;;;42.63;6.45;;;8.10;99.90;;;;;;5023691;28;20073;-63
2023/05/26 04:22:25;;;;;;;36.80;5.70;;;8.10;99.90;;;;;;5035319;28;20041;-63
2023/05/26 04:24:51;;;;;;;32.45;5.55;;;8.10;99.90;;;;;;5039644;28;20134;-63
2023/05/26 04:27:16;;;;;;;39.70;7.07;;;8.20;99.90;;;;;;5021819;28;20083;-62
2023/05/26 04:29:42;;;;;;;31.10;6.18;;;8.20;99.90;;;;;;5030469;28;20961;-62
2023/05/26 04:32:11;;;;;;;30.50;5.38;;;8.20;99.90;;;;;;5019355;28;20033;-63
2023/05/26 04:34:38;;;;;;;29.27;5.65;;;8.30;99.90;;;;;;5029702;28;20055;-63
2023/05/26 04:37:04;;;;;;;39.60;5.78;;;8.30;99.90;;;;;;5040770;28;20052;-63
2023/05/26 04:39:31;;;;;;;31.13;5.90;;;8.30;99.90;;;;;;5034684;28;20116;-63
2023/05/26 04:41:58;;;;;;;25.63;5.70;;;8.40;99.90;;;;;;5036147;28;20063;-63
2023/05/26 04:44:24;;;;;;;27.45;5.30;;;8.40;99.90;;;;;;5029302;28;20091;-63
2023/05/26 04:46:52;;;;;;;33.67;6.03;;;8.40;99.90;;;;;;5028989;28;20080;-64
2023/05/26 04:49:22;;;;;;;31.00;6.03;;;8.50;99.90;;;;;;5032558;28;20045;-63
2023/05/26 04:51:50;;;;;;;26.42;5.68;;;8.50;99.90;;;;;;5027755;28;20049;-63
2023/05/26 04:54:16;;;;;;;33.67;5.47;;;8.50;99.90;;;;;;5033642;28;20119;-63
2023/05/26 04:56:41;;;;;;;23.23;5.78;;;8.60;99.90;;;;;;5027424;28;20045;-63
2023/05/26 04:59:07;;;;;;;29.23;5.55;;;8.70;99.90;;;;;;5034992;28;20043;-63
2023/05/26 05:01:33;;;;;;;29.55;5.40;;;8.70;99.90;;;;;;5021859;28;20649;-63
2023/05/26 05:03:59;;;;;;;33.78;5.22;;;8.80;99.90;;;;;;5035423;28;21103;-63
2023/05/26 05:06:25;;;;;;;28.52;5.63;;;8.80;99.90;;;;;;5032443;28;20049;-63
2023/05/26 05:08:51;;;;;;;31.52;5.95;;;8.90;99.90;;;;;;5039049;28;20060;-63
2023/05/26 05:11:16;;;;;;;24.55;5.10;;;8.90;99.90;;;;;;5034457;28;20036;-64
2023/05/26 05:13:42;;;;;;;34.08;6.75;;;9.00;99.90;;;;;;5033960;28;20139;-63
2023/05/26 05:16:08;;;;;;;36.40;6.30;;;9.10;99.90;;;;;;5032648;28;20052;-64
2023/05/26 05:18:34;;;;;;;31.98;5.15;;;9.10;99.90;;;;;;5031299;28;22334;-64
2023/05/26 05:21:00;;;;;;;32.95;5.72;;;9.20;99.90;;;;;;5032559;28;20033;-63
2023/05/26 05:23:25;;;;;;;30.23;5.50;;;9.30;99.90;;;;;;5033648;28;20041;-63
2023/05/26 05:25:52;;;;;;;26.48;5.45;;;9.30;99.90;;;;;;5036657;28;22293;-64
2023/05/26 05:28:18;;;;;;;23.73;5.85;;;9.40;99.90;;;;;;5037070;28;20049;-63
2023/05/26 05:30:44;;;;;;;25.33;5.72;;;9.50;99.90;;;;;;5021337;28;20055;-62
2023/05/26 05:33:10;;;;;;;32.47;5.75;;;9.60;99.90;;;;;;5030239;28;20041;-63
2023/05/26 05:35:35;;;;;;;28.58;6.28;;;9.60;99.90;;;;;;5020406;28;20051;-63
2023/05/26 05:38:01;;;;;;;32.65;5.53;;;9.70;99.90;;;;;;5032970;28;20052;-63
2023/05/26 05:40:27;;;;;;;33.92;5.80;;;9.70;99.90;;;;;;5034391;28;20167;-63
2023/05/26 05:42:52;;;;;;;35.60;6.25;;;9.80;99.90;;;;;;5034434;28;20475;-64
2023/05/26 05:45:18;;;;;;;32.90;6.07;;;9.90;99.90;;;;;;5035187;28;20630;-63
2023/05/26 05:47:44;;;;;;;36.42;6.13;;;9.90;99.90;;;;;;5037466;28;20040;-64
2023/05/26 05:50:10;;;;;;;30.63;5.55;;;10.00;99.90;;;;;;5033558;28;20049;-64
2023/05/26 05:52:35;;;;;;;33.28;5.85;;;10.00;99.90;;;;;;5025256;28;20112;-64
2023/05/26 05:55:01;;;;;;;31.00;5.18;;;10.10;99.90;;;;;;5023949;28;20048;-63
2023/05/26 05:57:27;;;;;;;29.60;4.80;;;10.20;99.90;;;;;;5030303;28;20049;-63
2023/05/26 05:59:53;;;;;;;20.20;4.40;;;10.20;99.90;;;;;;5034243;28;20045;-64
2023/05/26 06:02:19;;;;;;;26.95;5.25;;;10.30;99.90;;;;;;5027478;28;20095;-63
2023/05/26 06:04:44;;;;;;;22.17;4.80;;;10.40;99.90;;;;;;5030594;28;20123;-63
2023/05/26 06:07:10;;;;;;;24.65;5.20;;;10.40;99.90;;;;;;5033806;28;20641;-63
2023/05/26 06:09:36;;;;;;;22.63;5.00;;;10.50;99.90;;;;;;5036559;28;20048;-64
2023/05/26 06:12:04;;;;;;;36.47;6.15;;;10.60;99.90;;;;;;5028538;28;20061;-69
2023/05/26 06:14:30;;;;;;;24.55;5.13;;;10.60;99.90;;;;;;5032232;28;20041;-70
2023/05/26 06:16:56;;;;;;;29.63;4.93;;;10.70;99.90;;;;;;5010264;28;20965;-67
2023/05/26 06:19:21;;;;;;;23.98;5.15;;;10.80;99.90;;;;;;5037419;28;20028;-68
2023/05/26 06:21:50;;;;;;;28.77;4.30;;;10.90;99.90;;;;;;5040775;28;20417;-69
2023/05/26 06:24:16;;;;;;;29.13;5.57;;;11.00;99.90;;;;;;5039091;28;20143;-70
2023/05/26 06:26:41;;;;;;;23.92;5.03;;;11.00;99.90;;;;;;5040864;28;20044;-69
2023/05/26 06:29:07;;;;;;;33.45;4.82;;;11.10;99.90;;;;;;5040911;28;20069;-70
2023/05/26 06:31:33;;;;;;;27.27;4.93;;;11.10;99.90;;;;;;5037658;28;20120;-64
2023/05/26 06:33:58;;;;;;;21.38;3.90;;;11.20;99.90;;;;;;5038191;28;20049;-69
2023/05/26 06:36:24;;;;;;;26.02;5.03;;;11.30;99.90;;;;;;5016138;28;20139;-68
2023/05/26 06:38:50;;;;;;;23.42;4.80;;;11.30;99.90;;;;;;5036099;28;20147;-68
2023/05/26 06:41:16;;;;;;;32.08;4.90;;;11.40;99.90;;;;;;5038223;28;20033;-69
2023/05/26 06:43:41;;;;;;;29.13;4.60;;;11.50;99.90;;;;;;5038683;28;20080;-68
2023/05/26 06:46:07;;;;;;;23.38;4.22;;;11.50;99.90;;;;;;5029981;28;20040;-68
2023/05/26 06:48:33;;;;;;;23.52;4.35;;;11.60;99.90;;;;;;5005843;28;20548;-69
2023/05/26 06:50:58;;;;;;;19.23;3.90;;;11.60;99.90;;;;;;5034438;28;20036;-69
2023/05/26 06:53:24;;;;;;;20.98;4.68;;;11.70;99.90;;;;;;5020107;28;20045;-67
2023/05/26 06:55:50;;;;;;;17.60;4.25;;;11.70;99.90;;;;;;5028845;28;20136;-68
2023/05/26 06:58:15;;;;;;;18.75;4.38;;;11.80;99.90;;;;;;5042342;28;20050;-67
2023/05/26 07:01:02;;;;;;;27.33;4.88;;;11.90;99.90;;;;;;5024108;28;20098;-64
2023/05/26 07:03:29;;;;;;;19.52;4.30;;;12.00;99.90;;;;;;5021648;28;20143;-70
2023/05/26 07:05:56;;;;;;;25.08;4.72;;;12.00;99.90;;;;;;5035871;28;20076;-70
2023/05/26 07:08:22;;;;;;;19.55;3.80;;;12.10;99.90;;;;;;5033538;28;20084;-70
2023/05/26 07:10:48;;;;;;;18.40;4.20;;;12.20;99.90;;;;;;5039949;28;20392;-71
2023/05/26 07:13:14;;;;;;;20.05;3.85;;;12.30;99.90;;;;;;5037240;28;20041;-68
2023/05/26 07:15:40;;;;;;;19.50;4.65;;;12.30;99.90;;;;;;5034339;28;20446;-67
2023/05/26 07:18:07;;;;;;;26.80;4.50;;;12.40;99.90;;;;;;5031753;28;20055;-65
2023/05/26 07:20:33;;;;;;;17.10;3.40;;;12.50;99.90;;;;;;5037925;28;20053;-70
2023/05/26 07:22:58;;;;;;;23.70;4.60;;;12.60;99.90;;;;;;5037271;28;20049;-67
2023/05/26 07:25:25;;;;;;;19.35;3.92;;;12.70;99.90;;;;;;5031158;28;20075;-65
2023/05/26 07:27:50;;;;;;;27.63;5.47;;;12.70;99.90;;;;;;5007867;28;20370;-70
2023/05/26 07:30:17;;;;;;;14.93;3.78;;;12.80;99.90;;;;;;5029371;28;20041;-68
2023/05/26 07:32:43;;;;;;;18.83;4.13;;;12.90;99.90;;;;;;5031404;28;20123;-66
2023/05/26 07:35:09;;;;;;;21.38;3.78;;;12.90;99.80;;;;;;5037784;28;20127;-70
2023/05/26 07:37:35;;;;;;;14.50;3.83;;;13.00;99.60;;;;;;5017465;28;20118;-65
2023/05/26 07:40:03;;;;;;;18.63;4.07;;;13.00;99.30;;;;;;5002220;28;20052;-68
2023/05/26 07:42:28;;;;;;;23.25;3.97;;;13.10;99.30;;;;;;5036495;28;20075;-70
2023/05/26 07:44:55;;;;;;;19.13;4.07;;;13.20;98.70;;;;;;5035061;28;20156;-71
2023/05/26 07:47:21;;;;;;;17.58;4.03;;;13.20;98.60;;;;;;5034698;28;20091;-70
2023/05/26 07:49:47;;;;;;;16.35;3.85;;;13.30;98.20;;;;;;5039944;28;21000;-64
2023/05/26 07:52:13;;;;;;;17.85;4.07;;;13.40;98.10;;;;;;5038832;28;20049;-71
2023/05/26 07:54:40;;;;;;;20.50;4.07;;;13.40;98.10;;;;;;5023062;28;20037;-72
2023/05/26 07:57:05;;;;;;;19.10;4.90;;;13.40;97.60;;;;;;5039638;28;20129;-69
2023/05/26 07:59:31;;;;;;;13.18;3.47;;;13.50;97.60;;;;;;5035969;28;20138;-70
2023/05/26 08:01:57;;;;;;;16.67;3.55;;;13.60;97.30;;;;;;5035850;28;20053;-70
2023/05/26 08:04:23;;;;;;;14.40;4.07;;;13.60;97.20;;;;;;5025990;28;20057;-70
2023/05/26 08:06:48;;;;;;;16.45;3.50;;;13.70;97.20;;;;;;5033156;28;20055;-67
2023/05/26 08:09:14;;;;;;;11.20;3.40;;;13.80;97.00;;;;;;5035476;28;20489;-68
2023/05/26 08:11:40;;;;;;;18.60;3.95;;;13.90;96.80;;;;;;5041584;28;20036;-66
2023/05/26 08:14:06;;;;;;;19.95;3.70;;;13.90;96.80;;;;;;5041225;28;20041;-65
2023/05/26 08:16:32;;;;;;;20.98;4.40;;;14.00;96.30;;;;;;5041585;28;20199;-70
2023/05/26 08:18:58;;;;;;;17.15;3.95;;;14.00;96.40;;;;;;5038470;28;20103;-68
2023/05/26 08:21:24;;;;;;;14.02;3.30;;;14.10;96.10;;;;;;5021409;28;20293;-65
2023/05/26 08:23:49;;;;;;;19.33;4.45;;;14.20;95.70;;;;;;5038315;28;20049;-68
2023/05/26 08:26:15;;;;;;;18.10;4.22;;;14.20;94.70;;;;;;5036808;28;20486;-70
2023/05/26 08:28:41;;;;;;;18.60;3.42;;;14.30;94.60;;;;;;5038317;28;20048;-70
2023/05/26 08:31:06;;;;;;;19.73;4.20;;;14.20;94.30;;;;;;5038593;28;20401;-70
2023/05/26 08:33:32;;;;;;;14.32;3.88;;;14.30;94.70;;;;;;5031836;28;20095;-69
2023/05/26 08:35:58;;;;;;;21.33;3.53;;;14.40;94.40;;;;;;5027637;28;20045;-69
2023/05/26 08:38:24;;;;;;;17.73;3.92;;;14.40;94.20;;;;;;5035860;28;20096;-69
2023/05/26 08:40:55;;;;;;;16.73;3.95;;;14.50;94.10;;;;;;5037480;28;20037;-70
2023/05/26 08:43:28;;;;;;;17.75;4.20;;;14.60;93.40;;;;;;5038837;28;20060;-69
2023/05/26 08:45:56;;;;;;;11.32;3.90;;;14.60;93.20;;;;;;5035763;28;20052;-69
2023/05/26 08:48:22;;;;;;;18.70;3.92;;;14.70;93.60;;;;;;5038777;28;20077;-69
2023/05/26 08:50:53;;;;;;;21.13;3.67;;;14.80;93.40;;;;;;5038894;28;20433;-70
2023/05/26 08:53:20;;;;;;;14.87;3.67;;;14.90;93.40;;;;;;5037276;28;20055;-69
2023/05/26 08:55:46;;;;;;;21.25;4.07;;;15.00;92.90;;;;;;5045248;28;20032;-71
2023/05/26 08:58:13;;;;;;;18.65;3.88;;;15.00;92.80;;;;;;5041623;28;21444;-71
2023/05/26 09:00:40;;;;;;;13.45;3.55;;;15.10;92.60;;;;;;5034646;28;20127;-70
2023/05/26 09:03:06;;;;;;;17.98;3.40;;;15.10;92.70;;;;;;5032350;28;20061;-66
2023/05/26 09:05:32;;;;;;;17.88;3.33;;;15.20;91.90;;;;;;5038268;28;20067;-71
2023/05/26 09:07:58;;;;;;;13.85;3.50;;;15.20;91.60;;;;;;5034446;28;20151;-70
2023/05/26 09:10:25;;;;;;;19.73;4.05;;;15.30;92.10;;;;;;5037095;28;20234;-70
2023/05/26 09:13:02;;;;;;;19.35;4.03;;;15.30;91.60;;;;;;5034563;28;20107;-70
2023/05/26 09:15:28;;;;;;;19.65;3.78;;;15.50;92.10;;;;;;5037637;28;22137;-70
2023/05/26 09:17:53;;;;;;;13.48;3.50;;;15.50;91.20;;;;;;5019424;28;20041;-70
2023/05/26 09:20:20;;;;;;;18.90;3.83;;;15.50;90.90;;;;;;5036538;28;20048;-70
2023/05/26 09:22:46;;;;;;;17.35;3.90;;;15.60;91.20;;;;;;5039505;28;20092;-71
2023/05/26 09:25:15;;;;;;;21.17;4.07;;;15.70;91.10;;;;;;5038506;28;20526;-71
2023/05/26 09:27:47;;;;;;;16.52;3.80;;;15.90;90.60;;;;;;5037624;28;20569;-70
2023/05/26 09:30:12;;;;;;;13.18;3.95;;;16.00;90.60;;;;;;5039244;28;20064;-71
2023/05/26 09:32:39;;;;;;;18.60;4.78;;;16.20;90.30;;;;;;5036476;28;20068;-70
2023/05/26 09:35:05;;;;;;;11.13;3.63;;;16.20;90.40;;;;;;5038343;28;20048;-65
2023/05/26 09:37:32;;;;;;;15.98;4.20;;;16.30;90.50;;;;;;5012558;28;20048;-68
2023/05/26 09:40:14;;;;;;;18.25;4.35;;;16.20;89.80;;;;;;5012193;28;20146;-70
2023/05/26 09:42:47;;;;;;;14.70;3.95;;;16.10;89.30;;;;;;5027975;28;20397;-69
2023/05/26 09:45:13;;;;;;;18.40;3.60;;;16.00;88.90;;;;;;5033447;28;20075;-69
2023/05/26 09:47:39;;;;;;;15.13;3.60;;;16.10;89.60;;;;;;5029836;28;20584;-71
2023/05/26 09:50:05;;;;;;;21.35;3.90;;;16.20;90.00;;;;;;5037027;28;20468;-70
2023/05/26 09:52:36;;;;;;;14.85;3.92;;;16.30;89.10;;;;;;5034563;28;20375;-70
2023/05/26 09:55:03;;;;;;;19.25;4.30;;;16.30;88.20;;;;;;5039228;28;20041;-71
2023/05/26 09:57:30;;;;;;;17.15;3.88;;;16.20;88.10;;;;;;5013886;28;20061;-69
2023/05/26 09:59:58;;;;;;;16.52;3.60;;;16.20;89.30;;;;;;5033004;28;20045;-68
2023/05/26 10:02:25;;;;;;;22.45;3.95;;;16.40;90.20;;;;;;5038547;28;20089;-68
2023/05/26 10:04:53;;;;;;;19.17;4.18;;;16.40;89.50;;;;;;5044682;28;20067;-70
2023/05/26 10:07:20;;;;;;;16.17;3.97;;;16.40;89.90;;;;;;5035450;28;20056;-65
2023/05/26 10:09:58;;;;;;;17.30;4.00;;;16.60;89.60;;;;;;5032854;28;20033;-71
2023/05/26 10:12:32;;;;;;;20.10;4.03;;;16.90;90.10;;;;;;5039194;28;20125;-70
2023/05/26 10:14:58;;;;;;;14.30;3.72;;;17.00;88.20;;;;;;5035652;28;20496;-71
2023/05/26 10:17:25;;;;;;;19.90;3.97;;;17.00;84.70;;;;;;5030785;28;20040;-65
2023/05/26 10:19:53;;;;;;;17.52;4.00;;;17.00;85.00;;;;;;5035849;28;20706;-68
2023/05/26 10:22:47;;;;;;;17.80;3.90;;;16.80;83.60;;;;;;5039908;28;20049;-71
2023/05/26 10:25:16;;;;;;;15.90;3.80;;;16.80;83.40;;;;;;5015232;28;20048;-68
2023/05/26 10:27:59;;;;;;;17.55;3.83;;;17.00;85.20;;;;;;5039893;28;20048;-71
2023/05/26 10:30:25;;;;;;;21.42;3.88;;;17.30;85.70;;;;;;5036821;28;20777;-71
2023/05/26 10:33:11;;;;;;;18.70;3.83;;;17.50;84.80;;;;;;5032604;28;20139;-66
2023/05/26 10:35:37;;;;;;;17.65;3.92;;;17.60;84.60;;;;;;5037967;28;20034;-68
2023/05/26 10:38:03;;;;;;;19.70;4.95;;;17.40;82.20;;;;;;5040830;28;20501;-71
2023/05/26 10:40:33;;;;;;;15.50;4.18;;;17.30;82.50;;;;;;5028883;28;20060;-70
2023/05/26 10:43:15;;;;;;;18.67;4.30;;;17.30;83.50;;;;;;5029778;28;20037;-71
2023/05/26 10:45:55;;;;;;;17.75;3.85;;;17.50;82.50;;;;;;5035877;28;20052;-70
2023/05/26 10:48:24;;;;;;;18.73;3.60;;;17.40;80.90;;;;;;5025290;28;20141;-72
2023/05/26 10:50:56;;;;;;;19.35;4.10;;;17.20;80.60;;;;;;5020177;28;20080;-69
2023/05/26 10:53:23;;;;;;;17.05;4.15;;;17.00;80.20;;;;;;5039187;28;20053;-72
2023/05/26 10:56:13;;;;;;;20.90;4.10;;;17.00;82.00;;;;;;5038883;28;20044;-72
2023/05/26 10:58:49;;;;;;;19.33;4.05;;;17.00;83.00;;;;;;5040891;28;20051;-71
2023/05/26 11:01:29;;;;;;;15.88;4.32;;;17.10;83.80;;;;;;5036883;28;20059;-66
2023/05/26 11:04:04;;;;;;;19.23;4.65;;;17.10;84.10;;;;;;5039638;28;20126;-72
2023/05/26 11:06:42;;;;;;;19.27;4.18;;;17.10;85.60;;;;;;5036483;28;20041;-72
2023/05/26 11:09:08;;;;;;;20.20;4.20;;;17.30;84.90;;;;;;5032979;28;20072;-70
2023/05/26 11:11:38;;;;;;;17.85;4.45;;;17.30;83.10;;;;;;5030634;28;20037;-71
2023/05/26 11:14:13;;;;;;;20.00;4.47;;;17.10;82.50;;;;;;5038208;28;20037;-71
2023/05/26 11:16:44;;;;;;;15.63;4.47;;;17.20;83.30;;;;;;5026662;28;20052;-71
2023/05/26 11:19:10;;;;;;;20.80;4.18;;;17.40;83.10;;;;;;5045738;28;20047;-72
2023/05/26 11:21:37;;;;;;;21.17;4.35;;;17.40;82.40;;;;;;5039345;28;20045;-72
2023/05/26 11:24:04;;;;;;;18.95;4.03;;;17.70;82.90;;;;;;5043247;28;20080;-70
2023/05/26 11:26:32;;;;;;;16.77;3.72;;;17.90;81.80;;;;;;5023813;28;20079;-70
2023/05/26 11:29:08;;;;;;;19.17;4.28;;;18.00;81.50;;;;;;5039259;28;24525;-72
2023/05/26 11:31:33;;;;;;;15.70;4.75;;;18.00;81.00;;;;;;5044010;28;20453;-70
2023/05/26 11:33:59;;;;;;;19.83;4.88;;;17.90;79.70;;;;;;5029603;28;20032;-72
2023/05/26 11:36:26;;;;;;;15.85;3.95;;;17.80;78.20;;;;;;5018517;28;20041;-68
2023/05/26 11:38:57;;;;;;;21.10;4.63;;;17.60;78.10;;;;;;5041938;28;20052;-61
2023/05/26 11:41:25;;;;;;;20.87;4.30;;;17.50;79.20;;;;;;5039800;28;20042;-61
2023/05/26 11:43:55;;;;;;;20.33;4.07;;;17.60;79.30;;;;;;5020928;28;20307;-62
2023/05/26 11:46:22;;;;;;;20.83;4.30;;;17.80;78.90;;;;;;5038369;28;20089;-61
2023/05/26 11:48:48;;;;;;;20.30;4.50;;;17.90;79.20;;;;;;5028306;28;20060;-63
2023/05/26 11:51:19;;;;;;;18.23;4.40;;;17.90;78.30;;;;;;5044557;28;20114;-61
2023/05/26 11:53:53;;;;;;;23.90;4.68;;;17.90;77.70;;;;;;5041714;28;20401;-62
2023/05/26 11:56:20;;;;;;;17.17;4.00;;;17.80;76.90;;;;;;5040858;28;20115;-61
2023/05/26 11:58:53;;;;;;;15.40;3.92;;;17.80;77.60;;;;;;5035152;28;20492;-61
2023/05/26 12:01:21;;;;;;;18.17;4.13;;;17.90;77.40;;;;;;5042908;28;20048;-62
2023/05/26 12:03:50;;;;;;;13.57;3.67;;;18.00;76.90;;;;;;5035344;28;20505;-61
2023/05/26 12:06:17;;;;;;;22.23;4.57;;;17.90;75.70;;;;;;5040695;28;20048;-62
2023/05/26 12:08:49;;;;;;;13.52;3.80;;;18.10;76.40;;;;;;5037577;28;20040;-61
2023/05/26 12:11:17;;;;;;;19.90;4.00;;;18.10;74.40;;;;;;5043446;28;20064;-62
2023/05/26 12:13:43;;;;;;;18.48;4.20;;;18.00;74.00;;;;;;5038817;28;20037;-63
2023/05/26 12:16:40;;;;;;;19.80;4.15;;;18.20;75.60;;;;;;5040712;28;20098;-61
2023/05/26 12:19:07;;;;;;;23.70;4.70;;;18.20;75.60;;;;;;5032199;28;20087;-61
2023/05/26 12:21:58;;;;;;;17.67;4.32;;;18.10;75.80;;;;;;5035773;28;20037;-62
2023/05/26 12:24:37;;;;;;;16.00;4.15;;;17.90;77.20;;;;;;5036223;28;20103;-62
2023/05/26 12:27:06;;;;;;;15.20;3.55;;;17.80;78.20;;;;;;5020353;28;20127;-62
2023/05/26 12:29:35;;;;;;;19.27;3.60;;;17.90;76.50;;;;;;5037357;28;20037;-62
2023/05/26 12:32:04;;;;;;;14.73;3.80;;;18.20;76.40;;;;;;5040287;28;20041;-62
2023/05/26 12:34:30;;;;;;;18.00;4.50;;;18.40;74.80;;;;;;5030458;28;20040;-62
2023/05/26 12:36:56;;;;;;;17.70;4.32;;;18.30;73.90;;;;;;5000627;28;20068;-61
2023/05/26 12:39:22;;;;;;;19.35;4.18;;;18.20;74.40;;;;;;5038899;28;20524;-66
2023/05/26 12:41:47;;;;;;;16.35;4.00;;;18.30;75.40;;;;;;5041849;28;20045;-66
2023/05/26 12:44:14;;;;;;;17.60;3.45;;;18.20;75.00;;;;;;5041101;28;20580;-66